Time;durP1;ratioP1;P1;durP2;ratioP2;P2;SDS_P1;SDS_P2;PMS_P1;PMS_P2;Temp;Humidity;BMP_temperature;BMP_pressure;BME280_temperature;BME280_humidity;BME280_pressure;Samples;Min_cycle;Max_cycle;Signal;HPM_P1;HPM_P2
2023/06/25 00:00:25;;;;;;;11.40;10.20;;;20.60;99.90;;;;;;5094456;28;20475;-63
2023/06/25 00:02:51;;;;;;;12.80;10.60;;;20.50;99.90;;;;;;5093487;28;20044;-61
2023/06/25 00:05:17;;;;;;;13.85;9.65;;;20.50;99.90;;;;;;5095507;28;20448;-61
2023/06/25 00:07:44;;;;;;;14.82;10.07;;;20.40;99.90;;;;;;5095582;28;20407;-62
2023/06/25 00:10:10;;;;;;;12.48;10.38;;;20.40;99.90;;;;;;5093308;28;20040;-61
2023/06/25 00:12:36;;;;;;;12.43;10.18;;;20.40;99.90;;;;;;5092744;28;20052;-59
2023/06/25 00:15:03;;;;;;;12.80;10.07;;;20.30;99.90;;;;;;5094755;28;20043;-62
2023/06/25 00:17:29;;;;;;;13.25;10.25;;;20.30;99.90;;;;;;5095327;28;20055;-60
2023/06/25 00:19:56;;;;;;;13.85;10.43;;;20.30;99.90;;;;;;5095676;28;20055;-60
2023/06/25 00:22:24;;;;;;;13.23;10.75;;;20.20;99.90;;;;;;5095668;28;20040;-61
2023/06/25 00:24:50;;;;;;;12.80;10.90;;;20.20;99.90;;;;;;5095887;28;20048;-60
2023/06/25 00:27:19;;;;;;;16.77;11.07;;;20.20;99.90;;;;;;5075335;28;20052;-61
2023/06/25 00:29:45;;;;;;;12.15;10.38;;;20.10;99.90;;;;;;5094070;28;20051;-60
2023/06/25 00:32:15;;;;;;;12.25;9.82;;;20.00;99.90;;;;;;5094113;28;20040;-61
2023/06/25 00:34:42;;;;;;;11.98;10.32;;;20.00;99.90;;;;;;5075017;28;20045;-61
2023/06/25 00:37:16;;;;;;;12.50;10.00;;;20.00;99.90;;;;;;5075148;28;20055;-60
2023/06/25 00:39:47;;;;;;;12.48;9.70;;;20.00;99.90;;;;;;5075106;28;20114;-62
2023/06/25 00:42:14;;;;;;;13.65;10.02;;;20.00;99.90;;;;;;5074002;28;20052;-60
2023/06/25 00:44:41;;;;;;;13.10;10.25;;;20.00;99.90;;;;;;5073849;28;20496;-60
2023/06/25 00:47:13;;;;;;;13.52;10.95;;;20.00;99.90;;;;;;5075041;28;20113;-61
2023/06/25 00:49:40;;;;;;;14.23;9.63;;;20.00;99.90;;;;;;5074405;28;20071;-60
2023/06/25 00:52:09;;;;;;;14.80;11.43;;;20.00;99.90;;;;;;5072996;28;20075;-62
2023/06/25 00:54:39;;;;;;;13.55;10.65;;;20.00;99.90;;;;;;5073574;28;20058;-60
2023/06/25 00:57:06;;;;;;;13.45;10.73;;;20.00;99.90;;;;;;5073623;28;20048;-60
2023/06/25 00:59:39;;;;;;;15.13;11.20;;;20.00;99.90;;;;;;5073575;28;20059;-62
2023/06/25 01:02:12;;;;;;;13.88;10.73;;;19.80;99.90;;;;;;5073630;28;20052;-59
2023/06/25 01:04:45;;;;;;;13.25;10.82;;;19.80;99.90;;;;;;5073497;28;20063;-62
2023/06/25 01:07:17;;;;;;;14.48;11.23;;;19.80;99.90;;;;;;5074381;28;20058;-59
2023/06/25 01:09:47;;;;;;;14.02;11.00;;;19.70;99.90;;;;;;5074514;28;20055;-60
2023/06/25 01:12:14;;;;;;;13.27;10.95;;;19.70;99.90;;;;;;5055494;28;20052;-62
2023/06/25 01:14:41;;;;;;;15.15;11.38;;;19.60;99.90;;;;;;5072868;28;20051;-61
2023/06/25 01:17:09;;;;;;;16.67;10.75;;;19.60;99.90;;;;;;5072700;28;20102;-61
2023/06/25 01:19:35;;;;;;;14.30;11.10;;;19.60;99.90;;;;;;5055377;28;20469;-62
2023/06/25 01:22:04;;;;;;;13.02;11.07;;;19.60;99.90;;;;;;5072478;28;20482;-60
2023/06/25 01:24:34;;;;;;;14.32;11.57;;;19.50;99.90;;;;;;5047055;28;20462;-61
2023/06/25 01:27:00;;;;;;;14.57;10.68;;;19.40;99.90;;;;;;5055535;28;20057;-63
2023/06/25 01:29:27;;;;;;;14.55;11.07;;;19.40;99.90;;;;;;5073242;28;20048;-61
2023/06/25 01:31:54;;;;;;;16.25;11.25;;;19.40;99.90;;;;;;5072770;28;20056;-60
2023/06/25 01:34:21;;;;;;;14.60;10.77;;;19.40;99.90;;;;;;5074120;28;20381;-60
2023/06/25 01:36:51;;;;;;;14.18;11.27;;;19.40;99.90;;;;;;5061607;28;20044;-62
2023/06/25 01:39:19;;;;;;;12.75;9.63;;;19.40;99.90;;;;;;5079029;28;20488;-61
2023/06/25 01:41:46;;;;;;;12.18;10.82;;;19.40;99.90;;;;;;5079200;28;20055;-61
2023/06/25 01:44:16;;;;;;;13.00;11.20;;;19.40;99.90;;;;;;5079457;28;20047;-61
2023/06/25 01:46:42;;;;;;;14.23;10.73;;;19.50;99.90;;;;;;5079285;28;20117;-61
2023/06/25 01:49:09;;;;;;;13.18;10.55;;;19.40;99.90;;;;;;5079310;28;20055;-59
2023/06/25 01:51:35;;;;;;;14.73;12.00;;;19.40;99.90;;;;;;5096964;28;20048;-58
2023/06/25 01:54:01;;;;;;;12.82;10.65;;;19.40;99.90;;;;;;5078830;28;20066;-62
2023/06/25 01:56:27;;;;;;;15.50;11.27;;;19.40;99.90;;;;;;5079983;28;20055;-60
2023/06/25 01:58:54;;;;;;;13.82;11.30;;;19.30;99.90;;;;;;5080276;28;20114;-60
2023/06/25 02:01:20;;;;;;;14.70;10.50;;;19.30;99.90;;;;;;5063532;28;20078;-60
2023/06/25 02:03:47;;;;;;;15.65;11.65;;;19.40;99.90;;;;;;5079670;28;20127;-61
2023/06/25 02:06:14;;;;;;;14.43;11.60;;;19.30;99.90;;;;;;5078867;28;20048;-61
2023/06/25 02:08:40;;;;;;;14.20;11.30;;;19.30;99.90;;;;;;5078783;28;20052;-62
2023/06/25 02:11:08;;;;;;;13.93;11.52;;;19.30;99.90;;;;;;5078586;28;20094;-60
2023/06/25 02:13:34;;;;;;;14.57;11.93;;;19.30;99.90;;;;;;5078591;28;20048;-62
2023/06/25 02:16:01;;;;;;;16.27;11.95;;;19.30;99.90;;;;;;5078508;28;20586;-61
2023/06/25 02:18:29;;;;;;;14.07;11.60;;;19.30;99.90;;;;;;5062042;28;20052;-61
2023/06/25 02:20:57;;;;;;;14.40;11.35;;;19.40;99.90;;;;;;5061883;28;20048;-60
2023/06/25 02:23:24;;;;;;;13.98;11.68;;;19.30;99.90;;;;;;5078325;28;20048;-60
2023/06/25 02:25:50;;;;;;;13.50;11.50;;;19.40;99.90;;;;;;5097833;28;20109;-60
2023/06/25 02:28:16;;;;;;;16.63;12.57;;;19.40;99.90;;;;;;5097817;28;20051;-60
2023/06/25 02:30:43;;;;;;;13.93;11.07;;;19.40;99.90;;;;;;5097776;28;20476;-60
2023/06/25 02:33:09;;;;;;;15.68;12.60;;;19.30;99.90;;;;;;5097217;28;20051;-60
2023/06/25 02:35:36;;;;;;;15.13;12.18;;;19.30;99.90;;;;;;5097628;28;20051;-60
2023/06/25 02:38:02;;;;;;;14.07;11.93;;;19.30;99.90;;;;;;5097546;28;20054;-60
2023/06/25 02:40:29;;;;;;;15.40;12.75;;;19.20;99.90;;;;;;5097732;28;20059;-60
2023/06/25 02:42:56;;;;;;;15.60;13.05;;;19.10;99.90;;;;;;5097599;28;20056;-60
2023/06/25 02:45:23;;;;;;;18.05;13.27;;;19.10;99.90;;;;;;5097463;28;20074;-60
2023/06/25 02:47:49;;;;;;;16.77;13.65;;;19.10;99.90;;;;;;5095159;28;20048;-59
2023/06/25 02:50:16;;;;;;;18.00;13.05;;;19.00;99.90;;;;;;5097392;28;20423;-59
2023/06/25 02:52:43;;;;;;;15.60;13.93;;;19.00;99.90;;;;;;5096805;28;20376;-60
2023/06/25 02:55:09;;;;;;;17.95;13.40;;;19.00;99.90;;;;;;5097230;28;20040;-62
2023/06/25 02:57:36;;;;;;;16.40;14.05;;;19.00;99.90;;;;;;5097066;28;20063;-59
2023/06/25 03:00:06;;;;;;;19.25;13.95;;;19.00;99.90;;;;;;5097148;28;20044;-60
2023/06/25 03:02:32;;;;;;;18.40;13.20;;;19.00;99.90;;;;;;5097132;28;20047;-59
2023/06/25 03:04:59;;;;;;;19.55;14.68;;;18.90;99.90;;;;;;5096922;28;20468;-60
2023/06/25 03:07:25;;;;;;;17.98;13.65;;;18.90;99.90;;;;;;5097020;28;20220;-60
2023/06/25 03:09:51;;;;;;;17.40;14.07;;;18.90;99.90;;;;;;5096879;28;20060;-60
2023/06/25 03:12:17;;;;;;;20.08;13.93;;;18.90;99.90;;;;;;5096730;28;20048;-61
2023/06/25 03:14:43;;;;;;;17.73;13.30;;;18.90;99.90;;;;;;5096811;28;20078;-60
2023/06/25 03:17:10;;;;;;;21.42;14.05;;;18.90;99.90;;;;;;5096504;28;20044;-62
2023/06/25 03:19:36;;;;;;;19.98;14.00;;;18.90;99.90;;;;;;5096826;28;20108;-60
2023/06/25 03:22:02;;;;;;;17.50;14.10;;;18.90;99.90;;;;;;5096148;28;20054;-60
2023/06/25 03:24:29;;;;;;;18.13;14.00;;;18.90;99.90;;;;;;5096726;28;20052;-61
2023/06/25 03:26:55;;;;;;;18.13;14.13;;;18.90;99.90;;;;;;5096405;28;20094;-59
2023/06/25 03:29:21;;;;;;;16.10;12.88;;;18.90;99.90;;;;;;5096437;28;20044;-59
2023/06/25 03:31:47;;;;;;;16.75;14.30;;;18.90;99.90;;;;;;5096021;28;20471;-60
2023/06/25 03:34:13;;;;;;;17.38;13.85;;;18.90;99.90;;;;;;5096267;28;20125;-60
2023/06/25 03:36:40;;;;;;;16.83;13.15;;;18.90;99.90;;;;;;5095553;28;20040;-61
2023/06/25 03:39:06;;;;;;;17.55;14.02;;;18.90;99.90;;;;;;5096358;28;20040;-59
2023/06/25 03:41:32;;;;;;;19.77;14.20;;;18.90;99.90;;;;;;5096471;28;20062;-62
2023/06/25 03:43:58;;;;;;;18.02;13.88;;;18.90;99.90;;;;;;5096246;28;20044;-60
2023/06/25 03:46:25;;;;;;;18.13;14.18;;;18.90;99.90;;;;;;5096425;28;20044;-62
2023/06/25 03:48:51;;;;;;;21.52;13.95;;;18.90;99.90;;;;;;5096149;28;20471;-60
2023/06/25 03:51:17;;;;;;;16.83;13.48;;;18.90;99.90;;;;;;5095628;28;20388;-60
2023/06/25 03:53:43;;;;;;;17.52;13.50;;;19.00;99.90;;;;;;5095947;28;20044;-60
2023/06/25 03:56:10;;;;;;;16.50;13.95;;;19.00;99.90;;;;;;5095956;28;20365;-60
2023/06/25 03:58:36;;;;;;;18.25;14.13;;;18.90;99.90;;;;;;5095485;28;20062;-60
2023/06/25 04:01:03;;;;;;;17.58;13.52;;;19.00;99.90;;;;;;5095829;28;20055;-58
2023/06/25 04:03:29;;;;;;;16.90;13.57;;;19.00;99.90;;;;;;5095346;28;20365;-60
2023/06/25 04:05:55;;;;;;;17.08;12.98;;;19.00;99.90;;;;;;5095800;28;20066;-60
2023/06/25 04:08:22;;;;;;;18.60;14.00;;;19.10;99.90;;;;;;5095832;28;20047;-62
2023/06/25 04:10:48;;;;;;;18.88;14.73;;;19.10;99.90;;;;;;5095829;28;20117;-60
2023/06/25 04:13:14;;;;;;;16.02;13.23;;;19.10;99.90;;;;;;5095727;28;20056;-58
2023/06/25 04:15:40;;;;;;;17.23;14.07;;;19.10;99.90;;;;;;5095724;28;20059;-60
2023/06/25 04:18:07;;;;;;;16.20;13.48;;;19.10;99.90;;;;;;5095530;28;20044;-60
2023/06/25 04:20:33;;;;;;;18.35;14.48;;;19.20;99.90;;;;;;5095359;28;20048;-62
2023/06/25 04:23:00;;;;;;;18.70;13.95;;;19.20;99.90;;;;;;5095565;28;20067;-60
2023/06/25 04:25:26;;;;;;;17.08;14.10;;;19.20;99.90;;;;;;5095426;28;20051;-60
2023/06/25 04:27:54;;;;;;;18.60;14.48;;;19.20;99.90;;;;;;5095477;28;20448;-60
2023/06/25 04:30:20;;;;;;;19.80;13.68;;;19.20;99.90;;;;;;5095451;28;20052;-60
2023/06/25 04:32:49;;;;;;;18.13;14.05;;;19.30;99.90;;;;;;5094987;28;20055;-60
2023/06/25 04:35:18;;;;;;;18.05;13.93;;;19.30;99.90;;;;;;5095339;28;20044;-60
2023/06/25 04:37:44;;;;;;;16.88;14.00;;;19.30;99.90;;;;;;5095003;28;20043;-60
2023/06/25 04:40:12;;;;;;;18.10;13.85;;;19.40;99.90;;;;;;5095366;28;20051;-60
2023/06/25 04:42:38;;;;;;;17.85;14.32;;;19.40;99.90;;;;;;5095298;28;20055;-60
2023/06/25 04:45:05;;;;;;;17.00;13.63;;;19.40;99.90;;;;;;5095087;28;20078;-60
2023/06/25 04:47:32;;;;;;;19.15;14.73;;;19.50;99.90;;;;;;5095060;28;20044;-60
2023/06/25 04:49:58;;;;;;;17.75;13.43;;;19.60;99.90;;;;;;5094907;28;20055;-60
2023/06/25 04:52:24;;;;;;;19.05;14.30;;;19.50;99.90;;;;;;5095060;28;20056;-60
2023/06/25 04:54:51;;;;;;;21.42;14.57;;;19.60;99.90;;;;;;5094741;28;20479;-61
2023/06/25 04:57:17;;;;;;;18.15;14.60;;;19.70;99.90;;;;;;5095003;28;20044;-60
2023/06/25 04:59:43;;;;;;;16.92;13.52;;;20.20;99.90;;;;;;5094612;28;20502;-60
2023/06/25 05:02:09;;;;;;;18.88;13.77;;;21.00;99.90;;;;;;5095025;28;20105;-61
2023/06/25 05:04:35;;;;;;;19.30;14.85;;;21.90;99.90;;;;;;5095101;28;20063;-60
2023/06/25 05:07:02;;;;;;;18.67;13.90;;;22.70;99.90;;;;;;5077060;28;20040;-60
2023/06/25 05:09:28;;;;;;;18.20;14.50;;;23.40;99.90;;;;;;5088461;28;20040;-61
2023/06/25 05:11:55;;;;;;;15.07;12.85;;;23.90;99.90;;;;;;5094054;28;20044;-59
2023/06/25 05:14:21;;;;;;;18.10;13.88;;;24.30;99.90;;;;;;5076990;28;20105;-60
2023/06/25 05:16:47;;;;;;;15.77;13.98;;;24.80;99.90;;;;;;5077478;28;20048;-61
2023/06/25 05:19:13;;;;;;;16.73;13.43;;;25.20;99.90;;;;;;5094859;28;20044;-61
2023/06/25 05:21:40;;;;;;;16.98;13.27;;;25.60;99.90;;;;;;5082943;28;20399;-61
2023/06/25 05:24:07;;;;;;;17.67;13.93;;;25.90;99.90;;;;;;5074599;28;20106;-61
2023/06/25 05:26:33;;;;;;;16.15;13.32;;;25.90;99.90;;;;;;5076334;28;20437;-61
2023/06/25 05:29:00;;;;;;;16.60;14.02;;;26.10;99.90;;;;;;5074397;28;20480;-61
2023/06/25 05:31:26;;;;;;;17.55;14.13;;;26.60;99.90;;;;;;5093808;28;20468;-61
2023/06/25 05:33:52;;;;;;;15.48;12.95;;;26.90;99.90;;;;;;5067161;28;20115;-59
2023/06/25 05:36:18;;;;;;;16.50;13.48;;;26.90;99.90;;;;;;5074225;28;20049;-61
2023/06/25 05:38:45;;;;;;;15.10;13.50;;;27.30;99.90;;;;;;5074520;28;20075;-61
2023/06/25 05:41:11;;;;;;;15.73;13.70;;;27.50;99.90;;;;;;5070784;28;20041;-61
2023/06/25 05:43:37;;;;;;;15.45;13.88;;;27.70;99.90;;;;;;5054269;28;20077;-61
2023/06/25 05:46:03;;;;;;;16.38;13.90;;;27.80;99.90;;;;;;5064662;28;20365;-61
2023/06/25 05:48:30;;;;;;;16.13;14.10;;;27.80;99.90;;;;;;5073776;28;20044;-62
2023/06/25 05:50:56;;;;;;;16.80;14.23;;;27.60;99.90;;;;;;5071586;28;20110;-61
2023/06/25 05:53:24;;;;;;;14.95;13.45;;;28.10;99.90;;;;;;5056633;28;20049;-61
2023/06/25 05:55:51;;;;;;;15.90;13.70;;;28.10;99.90;;;;;;5074340;28;20055;-60
2023/06/25 05:58:17;;;;;;;16.20;14.55;;;28.60;99.90;;;;;;5056225;28;20495;-61
2023/06/25 06:00:43;;;;;;;17.00;15.20;;;28.40;99.90;;;;;;5056181;28;20053;-62
2023/06/25 06:03:09;;;;;;;16.25;14.45;;;28.50;99.80;;;;;;5071032;28;20045;-62
2023/06/25 06:05:35;;;;;;;17.48;14.88;;;28.70;99.90;;;;;;5060628;28;20491;-61
2023/06/25 06:08:02;;;;;;;16.80;14.68;;;28.60;99.70;;;;;;5053935;28;20378;-61
2023/06/25 06:10:28;;;;;;;18.13;14.90;;;28.90;99.60;;;;;;5067243;28;20111;-62
2023/06/25 06:12:54;;;;;;;16.75;15.15;;;29.00;99.50;;;;;;5058034;28;20045;-63
2023/06/25 06:15:20;;;;;;;16.58;14.80;;;29.40;99.30;;;;;;5055156;28;20045;-61
2023/06/25 06:17:47;;;;;;;17.55;15.75;;;29.50;98.90;;;;;;5074007;28;20049;-61
2023/06/25 06:20:13;;;;;;;16.80;14.88;;;29.50;98.90;;;;;;5065448;28;20464;-61
2023/06/25 06:22:39;;;;;;;16.65;14.98;;;29.60;98.90;;;;;;5056404;28;20056;-61
2023/06/25 06:25:06;;;;;;;15.82;14.02;;;29.80;98.70;;;;;;5056894;28;20414;-60
2023/06/25 06:27:32;;;;;;;15.25;13.60;;;30.00;98.60;;;;;;5057182;28;20044;-59
2023/06/25 06:30:00;;;;;;;17.15;15.35;;;30.50;98.50;;;;;;5057431;28;20110;-59
2023/06/25 06:32:26;;;;;;;15.52;13.93;;;31.00;98.20;;;;;;5056771;28;20079;-61
2023/06/25 06:34:52;;;;;;;15.10;13.50;;;31.30;97.70;;;;;;5057439;28;20045;-60
2023/06/25 06:37:19;;;;;;;16.10;14.15;;;31.40;97.60;;;;;;5057613;28;20041;-60
2023/06/25 06:39:45;;;;;;;18.08;15.13;;;31.50;97.30;;;;;;5022947;28;20041;-59
2023/06/25 06:42:11;;;;;;;16.20;14.57;;;31.70;96.80;;;;;;5057135;28;20049;-62
2023/06/25 06:44:37;;;;;;;16.08;14.40;;;31.80;96.80;;;;;;5056834;28;20052;-60
2023/06/25 06:47:04;;;;;;;16.10;14.38;;;31.80;96.80;;;;;;5056588;28;20049;-61
2023/06/25 06:49:30;;;;;;;16.63;15.02;;;32.10;96.60;;;;;;5042927;28;20063;-61
2023/06/25 06:51:57;;;;;;;15.73;14.13;;;32.00;96.40;;;;;;5076605;28;20068;-60
2023/06/25 06:54:23;;;;;;;15.98;14.23;;;32.00;96.30;;;;;;5076821;28;20052;-60
2023/06/25 06:56:49;;;;;;;15.90;14.40;;;32.20;96.50;;;;;;5076656;28;20045;-60
2023/06/25 06:59:15;;;;;;;15.85;14.25;;;32.10;96.10;;;;;;5076606;28;20449;-59
2023/06/25 07:01:42;;;;;;;15.45;13.88;;;32.20;96.30;;;;;;5076236;28;20473;-60
2023/06/25 07:04:08;;;;;;;14.40;12.88;;;31.50;96.60;;;;;;5075893;28;20055;-60
2023/06/25 07:06:34;;;;;;;15.35;13.77;;;30.80;96.90;;;;;;5076237;28;20071;-62
2023/06/25 07:09:01;;;;;;;14.68;13.18;;;30.20;96.90;;;;;;5076555;28;20460;-60
2023/06/25 07:11:27;;;;;;;14.93;13.40;;;30.00;97.20;;;;;;5076342;28;20064;-61
2023/06/25 07:13:53;;;;;;;14.90;13.02;;;29.80;97.40;;;;;;5076036;28;20468;-60
2023/06/25 07:16:20;;;;;;;14.93;13.43;;;29.50;97.90;;;;;;5075864;28;20555;-62
2023/06/25 07:18:46;;;;;;;15.13;13.13;;;29.50;98.20;;;;;;5075532;28;20052;-62
2023/06/25 07:21:12;;;;;;;14.70;13.20;;;29.40;98.00;;;;;;5075898;28;20052;-62
2023/06/25 07:23:38;;;;;;;15.70;14.05;;;29.40;98.00;;;;;;5076341;28;20049;-61
2023/06/25 07:26:05;;;;;;;14.35;12.95;;;29.30;98.00;;;;;;5075481;28;20453;-62
2023/06/25 07:28:31;;;;;;;14.55;12.90;;;29.30;97.80;;;;;;5076018;28;20527;-62
2023/06/25 07:30:57;;;;;;;14.65;13.23;;;29.30;98.00;;;;;;5075366;28;20059;-61
2023/06/25 07:33:24;;;;;;;13.77;12.35;;;29.30;98.00;;;;;;5066426;28;20062;-60
2023/06/25 07:35:50;;;;;;;13.40;11.55;;;29.30;97.90;;;;;;5096902;28;20372;-60
2023/06/25 07:38:16;;;;;;;14.85;13.40;;;29.40;97.90;;;;;;5095904;28;20044;-62
2023/06/25 07:40:43;;;;;;;14.30;12.80;;;29.50;97.90;;;;;;5095875;28;20367;-62
2023/06/25 07:43:11;;;;;;;12.80;11.45;;;29.70;97.90;;;;;;5095735;28;20044;-60
2023/06/25 07:45:38;;;;;;;14.02;12.63;;;29.70;97.70;;;;;;5095848;28;20059;-61
2023/06/25 07:48:05;;;;;;;12.45;11.25;;;29.60;97.50;;;;;;5095361;28;20369;-61
2023/06/25 07:50:31;;;;;;;13.35;12.05;;;29.60;97.50;;;;;;5095064;28;20048;-59
2023/06/25 07:52:57;;;;;;;13.50;10.60;;;29.50;97.50;;;;;;5095382;28;20387;-62
2023/06/25 07:55:25;;;;;;;12.32;11.00;;;29.50;97.60;;;;;;5095311;28;20392;-60
2023/06/25 07:57:51;;;;;;;11.77;10.57;;;29.40;97.40;;;;;;5095435;28;20044;-60
2023/06/25 08:00:17;;;;;;;11.75;10.52;;;29.40;97.40;;;;;;5095627;28;20048;-60
2023/06/25 08:02:44;;;;;;;12.10;10.13;;;29.60;97.20;;;;;;5095474;28;20052;-61
2023/06/25 08:05:10;;;;;;;11.02;9.93;;;29.70;97.20;;;;;;5088774;28;20373;-60
2023/06/25 08:07:37;;;;;;;11.13;9.52;;;29.70;96.90;;;;;;5074997;28;20048;-60
2023/06/25 08:10:03;;;;;;;12.07;10.85;;;29.80;96.50;;;;;;5057631;28;20053;-59
2023/06/25 08:12:30;;;;;;;12.20;9.98;;;29.90;96.50;;;;;;5073091;28;20049;-61
2023/06/25 08:14:57;;;;;;;9.73;8.52;;;29.90;96.60;;;;;;5074982;28;20048;-60
2023/06/25 08:17:23;;;;;;;10.30;9.20;;;29.90;96.40;;;;;;5057426;28;20045;-59
2023/06/25 08:19:49;;;;;;;11.27;9.32;;;29.90;96.40;;;;;;5095277;28;20052;-60
2023/06/25 08:22:16;;;;;;;10.82;8.48;;;29.90;96.00;;;;;;5095545;28;20097;-60
2023/06/25 08:24:42;;;;;;;10.40;8.52;;;29.90;95.70;;;;;;5095296;28;20040;-60
2023/06/25 08:27:08;;;;;;;8.95;8.00;;;30.00;95.50;;;;;;5061195;28;20373;-60
2023/06/25 08:29:34;;;;;;;9.57;7.47;;;30.00;95.40;;;;;;5071809;28;20040;-60
2023/06/25 08:32:00;;;;;;;9.07;8.10;;;30.00;95.00;;;;;;5074426;28;20101;-62
2023/06/25 08:34:27;;;;;;;9.65;8.65;;;30.10;95.00;;;;;;5053527;28;20076;-63
2023/06/25 08:36:53;;;;;;;9.40;8.18;;;30.20;94.90;;;;;;5035771;28;20484;-61
2023/06/25 08:39:20;;;;;;;8.15;7.03;;;30.10;95.10;;;;;;5068687;28;20048;-62
2023/06/25 08:41:47;;;;;;;8.57;7.68;;;30.00;94.60;;;;;;5056206;28;20064;-62
2023/06/25 08:44:14;;;;;;;9.98;6.85;;;30.10;94.70;;;;;;5071389;28;20110;-63
2023/06/25 08:46:47;;;;;;;11.00;6.57;;;30.20;94.60;;;;;;5070755;28;20075;-63
2023/06/25 08:49:15;;;;;;;8.68;7.47;;;30.20;94.10;;;;;;5085361;28;20055;-61
2023/06/25 08:51:41;;;;;;;8.35;6.47;;;30.20;94.30;;;;;;5080557;28;20058;-62
2023/06/25 08:54:08;;;;;;;9.15;6.00;;;30.20;94.10;;;;;;5071553;28;20056;-61
2023/06/25 08:56:35;;;;;;;8.68;5.85;;;30.20;93.70;;;;;;5071509;28;20060;-62
2023/06/25 08:59:01;;;;;;;8.48;4.95;;;30.30;93.70;;;;;;5083318;28;20366;-61
2023/06/25 09:01:28;;;;;;;6.30;4.93;;;30.30;93.10;;;;;;5091514;28;20048;-61
2023/06/25 09:03:54;;;;;;;6.88;5.68;;;30.30;92.40;;;;;;5091697;28;20361;-62
2023/06/25 09:06:21;;;;;;;7.40;5.65;;;30.20;92.60;;;;;;5073751;28;20056;-63
2023/06/25 09:08:48;;;;;;;8.40;5.15;;;30.20;92.40;;;;;;5081069;28;20444;-63
2023/06/25 09:11:15;;;;;;;7.40;6.13;;;30.40;92.20;;;;;;5057285;28;20041;-64
2023/06/25 09:13:41;;;;;;;8.15;5.65;;;30.20;92.10;;;;;;5068748;28;20044;-62
2023/06/25 09:16:09;;;;;;;7.15;5.20;;;30.30;92.10;;;;;;5050841;28;20333;-61
2023/06/25 09:18:36;;;;;;;6.75;5.57;;;30.40;91.70;;;;;;5061030;28;20356;-61
2023/06/25 09:21:08;;;;;;;6.38;5.28;;;30.50;91.60;;;;;;5070406;28;20055;-61
2023/06/25 09:23:37;;;;;;;8.65;5.53;;;30.50;91.40;;;;;;5059318;28;20103;-62
2023/06/25 09:26:06;;;;;;;8.38;5.50;;;30.50;91.60;;;;;;5068751;28;20373;-61
2023/06/25 09:28:33;;;;;;;7.90;5.53;;;30.70;91.20;;;;;;5060065;28;20067;-61
2023/06/25 09:31:00;;;;;;;9.52;5.90;;;30.70;91.40;;;;;;5053001;28;20045;-62
2023/06/25 09:33:33;;;;;;;10.25;6.38;;;30.60;91.00;;;;;;5081722;28;20057;-61
2023/06/25 09:36:01;;;;;;;11.85;6.38;;;30.60;91.20;;;;;;5091295;28;20044;-61
2023/06/25 09:38:27;;;;;;;8.85;5.75;;;30.70;91.20;;;;;;5090951;28;20052;-60
2023/06/25 09:40:57;;;;;;;7.78;5.57;;;30.70;91.20;;;;;;5091078;28;20044;-62
2023/06/25 09:43:24;;;;;;;12.02;7.25;;;30.80;91.30;;;;;;5056756;28;20059;-61
2023/06/25 09:45:52;;;;;;;9.23;6.70;;;30.60;90.60;;;;;;5091173;28;20051;-61
2023/06/25 09:48:22;;;;;;;11.23;6.35;;;30.70;90.60;;;;;;5090663;28;20059;-61
2023/06/25 09:50:50;;;;;;;8.93;5.55;;;30.70;90.50;;;;;;5089941;28;20372;-60
2023/06/25 09:53:19;;;;;;;8.25;6.00;;;30.70;90.20;;;;;;5090699;28;20048;-61
2023/06/25 09:55:46;;;;;;;6.85;5.63;;;30.70;90.60;;;;;;5091007;28;20044;-61
2023/06/25 09:58:13;;;;;;;8.82;6.22;;;30.70;90.60;;;;;;5093874;28;20445;-61
2023/06/25 10:00:40;;;;;;;9.18;6.05;;;30.80;90.20;;;;;;5094563;28;20052;-61
2023/06/25 10:03:07;;;;;;;8.18;5.47;;;30.90;89.80;;;;;;5093918;28;20056;-61
2023/06/25 10:05:34;;;;;;;7.38;5.15;;;30.90;89.10;;;;;;5094169;28;20062;-61
2023/06/25 10:08:01;;;;;;;7.07;5.68;;;31.10;89.00;;;;;;5093993;28;20105;-61
2023/06/25 10:10:29;;;;;;;6.50;5.13;;;31.10;88.10;;;;;;5094329;28;20066;-61
2023/06/25 10:12:55;;;;;;;9.18;5.30;;;31.30;88.70;;;;;;5093925;28;20052;-60
2023/06/25 10:15:35;;;;;;;6.75;4.82;;;31.20;88.80;;;;;;5094036;28;20547;-62
2023/06/25 10:18:03;;;;;;;6.20;5.00;;;31.40;88.90;;;;;;5093964;28;20067;-62
2023/06/25 10:20:33;;;;;;;6.22;4.65;;;31.30;89.00;;;;;;5093894;28;20055;-62
2023/06/25 10:23:12;;;;;;;6.00;5.00;;;31.30;89.00;;;;;;5086677;28;20049;-62
2023/06/25 10:25:50;;;;;;;6.10;4.75;;;31.40;87.60;;;;;;5083002;28;20669;-62
2023/06/25 10:28:17;;;;;;;5.38;4.28;;;31.30;87.60;;;;;;5085631;28;20055;-61
2023/06/25 10:30:47;;;;;;;5.38;3.92;;;31.40;87.10;;;;;;5094801;28;20062;-60
2023/06/25 10:33:18;;;;;;;6.28;4.55;;;31.30;86.40;;;;;;5084722;28;20476;-60
2023/06/25 10:35:53;;;;;;;5.10;4.38;;;31.30;87.30;;;;;;5073838;28;20420;-62
2023/06/25 10:38:20;;;;;;;5.18;4.53;;;31.50;87.20;;;;;;5065448;28;20049;-61
2023/06/25 10:40:46;;;;;;;5.38;4.22;;;31.50;87.70;;;;;;5064304;28;20094;-61
2023/06/25 10:43:19;;;;;;;5.78;4.90;;;31.50;88.00;;;;;;5073705;28;20435;-60
2023/06/25 10:45:50;;;;;;;6.85;5.30;;;31.60;88.30;;;;;;5074369;28;20114;-61
2023/06/25 10:48:17;;;;;;;6.95;5.03;;;31.50;88.70;;;;;;5065080;28;20669;-62
2023/06/25 10:50:44;;;;;;;6.75;5.18;;;31.60;89.20;;;;;;5062046;28;20049;-60
2023/06/25 10:53:13;;;;;;;6.15;4.95;;;31.70;89.00;;;;;;5056996;28;20045;-62
2023/06/25 10:55:43;;;;;;;6.35;5.45;;;31.80;88.20;;;;;;5053755;28;20080;-63
2023/06/25 10:58:13;;;;;;;6.35;5.22;;;31.80;88.70;;;;;;5058675;28;20044;-61
2023/06/25 11:00:39;;;;;;;5.75;5.13;;;31.80;89.30;;;;;;5074180;28;20140;-61
2023/06/25 11:03:06;;;;;;;6.05;4.80;;;31.80;88.70;;;;;;5073569;28;20045;-62
2023/06/25 11:05:40;;;;;;;6.68;4.85;;;31.70;89.00;;;;;;5074026;28;20049;-62
2023/06/25 11:08:10;;;;;;;5.40;4.55;;;31.80;88.80;;;;;;5072644;28;20048;-62
2023/06/25 11:10:37;;;;;;;6.10;5.00;;;31.80;88.90;;;;;;5073825;28;20048;-61
2023/06/25 11:13:03;;;;;;;7.00;5.07;;;31.60;88.30;;;;;;5073578;28;20049;-63
2023/06/25 11:15:31;;;;;;;6.50;4.88;;;31.60;87.80;;;;;;5073669;28;20090;-63
2023/06/25 11:17:58;;;;;;;6.13;4.78;;;31.50;87.50;;;;;;5073787;28;20059;-63
2023/06/25 11:20:26;;;;;;;5.70;4.60;;;31.40;87.70;;;;;;5074716;28;20493;-63
2023/06/25 11:22:58;;;;;;;5.25;4.65;;;31.50;87.80;;;;;;5073922;28;20048;-63
2023/06/25 11:25:25;;;;;;;5.50;4.40;;;31.60;88.20;;;;;;5073164;28;20045;-63
2023/06/25 11:28:02;;;;;;;6.15;5.10;;;31.80;88.70;;;;;;5073146;28;20048;-63
2023/06/25 11:30:29;;;;;;;5.95;5.35;;;31.90;86.40;;;;;;5073256;28;20059;-63
2023/06/25 11:33:06;;;;;;;6.03;4.65;;;31.90;86.30;;;;;;5061557;28;20052;-63
2023/06/25 11:35:33;;;;;;;8.13;4.90;;;31.90;86.50;;;;;;5093150;28;20052;-63
2023/06/25 11:37:59;;;;;;;7.40;5.95;;;31.90;87.00;;;;;;5092999;28;20062;-63
2023/06/25 11:40:56;;;;;;;6.93;5.00;;;31.90;86.90;;;;;;5093400;28;20044;-64
2023/06/25 11:43:24;;;;;;;7.68;6.88;;;32.00;85.90;;;;;;5075323;28;20055;-64
2023/06/25 11:45:50;;;;;;;6.57;5.93;;;31.90;86.10;;;;;;5074930;28;20051;-64
2023/06/25 11:48:17;;;;;;;7.45;6.75;;;31.80;86.80;;;;;;5089725;28;20048;-63
2023/06/25 11:50:49;;;;;;;8.93;8.02;;;31.70;86.90;;;;;;5093902;28;20044;-63
2023/06/25 11:53:16;;;;;;;9.40;7.03;;;31.80;87.00;;;;;;5092676;28;20461;-63
2023/06/25 11:55:42;;;;;;;7.70;6.88;;;31.60;87.60;;;;;;5074900;28;20040;-64
2023/06/25 11:58:09;;;;;;;6.72;6.00;;;31.70;88.00;;;;;;5074581;28;20048;-63
2023/06/25 12:00:36;;;;;;;8.52;6.00;;;31.70;86.70;;;;;;5092536;28;20345;-62
2023/06/25 12:03:02;;;;;;;7.97;6.43;;;31.70;87.90;;;;;;5084480;28;20459;-63
2023/06/25 12:05:29;;;;;;;6.72;6.13;;;31.80;88.00;;;;;;5073486;28;20041;-63
2023/06/25 12:07:55;;;;;;;6.18;5.38;;;31.70;87.60;;;;;;5074938;28;20056;-63
2023/06/25 12:10:21;;;;;;;7.30;5.88;;;31.60;87.60;;;;;;5068559;28;20040;-63
2023/06/25 12:12:47;;;;;;;6.38;5.35;;;31.60;87.90;;;;;;5072479;28;20056;-63
2023/06/25 12:15:14;;;;;;;8.93;6.13;;;31.70;88.00;;;;;;5054759;28;20127;-63
2023/06/25 12:17:42;;;;;;;6.85;5.97;;;31.50;87.90;;;;;;5054975;28;20060;-63
2023/06/25 12:20:08;;;;;;;7.43;5.88;;;31.40;88.00;;;;;;5057619;28;20064;-64
2023/06/25 12:22:35;;;;;;;7.78;5.70;;;31.70;88.00;;;;;;5072441;28;20045;-64
2023/06/25 12:25:01;;;;;;;5.70;5.10;;;31.70;87.50;;;;;;5072754;28;20078;-64
2023/06/25 12:27:27;;;;;;;6.25;5.40;;;31.80;88.30;;;;;;5038391;28;20440;-63
2023/06/25 12:29:53;;;;;;;5.70;5.20;;;31.70;87.30;;;;;;5073056;28;20055;-62
2023/06/25 12:32:20;;;;;;;6.38;5.65;;;31.80;85.80;;;;;;5074142;28;20149;-63